• Join FlightAware (Why Join?)
  • Login
  • US Flag 
04:13AM EDT


 

Airport Tracker/Info


-or-


 

Live Flight TrackerFlight Track Log ✈ N2107D ✈ 23-Jun-2013 ✈ MYGF / FPO - KOPF

Flight Track Log - Related Links

Times and Time Zones

All times are in EDT time to prevent confusion due to time zone crossing. See the N2107D flight status page for this flight to view local times or setup timezone preferences in your user account.

Time Position Orientation Groundspeed Altitude Reporting Facility
EDT Latitude Longitude Course Direction KTS MPH feet Rate Location/Type
11:09AM 26.5333 -78.8810 270° West  Level FlightAware Approximate
11:15AM 26.5017 -78.9669 270° West 100 115 5,200  Level Miami Center
11:16AM 26.4950 -78.9947 255° West 100 115 5,500 300 Climbing Miami Center
11:17AM 26.4925 -79.0200 264° West 100 115 5,800 300 Climbing Miami Center
11:18AM 26.4839 -79.0456 249° West 95 109 6,100 120 Climbing Miami Center
11:19AM 26.4772 -79.0778 257° West 95 109 6,100 -60 Level Miami Center
11:20AM 26.4744 -79.1125 265° West 107 123 6,000 -60 Descending Miami Center
11:21AM 26.4719 -79.1475 265° West 113 130 6,000  Level Miami Center
11:22AM 26.4756 -79.1847 276° West 113 130 6,000  Level Miami Center
11:23AM 26.4728 -79.2194 265° West 118 136 6,000 -60 Level Miami Center
11:24AM 26.4619 -79.2517 249° West 118 136 5,900 -60 Descending Miami Center
11:25AM 26.4653 -79.2889 276° West 118 136 5,900  Level Miami Center
11:26AM 26.4692 -79.3144 280° West 112 129 6,000  Climbing Miami Center
11:27AM 26.4728 -79.3517 276° West 107 123 6,000  Level Miami Center
11:28AM 26.4722 -79.3842 269° West 107 123 6,100  Climbing Miami Center
11:29AM 26.4756 -79.4214 276° West 107 123 6,000 -60 Descending Miami Center
11:30AM 26.4772 -79.4517 274° West 107 123 6,000 -60 Level Miami Center
11:31AM 26.4808 -79.4911 276° West 107 123 5,900  Descending Miami Center
11:32AM 26.4719 -79.5189 250° West 107 123 6,000  Climbing Miami Center
11:33AM 26.4506 -79.5439 226° Southwest 107 123 6,000  Level Miami Center
11:34AM 26.4294 -79.5594 213° Southwest 107 123 6,100  Climbing Miami Center
11:34AM 26.4122 -79.5825 230° Southwest 104 120 6,100  Level Miami Center
11:35AM 26.3950 -79.6053 230° Southwest 109 125 6,100  Level Miami Center
11:36AM 26.3694 -79.6256 215° Southwest 109 125 6,100 -240 Level Miami Center
11:37AM 26.3439 -79.6550 226° Southwest 112 129 5,600 -360 Descending Miami Center
11:38AM 26.3331 -79.6778 242° Southwest 112 129 5,400 -420 Descending Miami Center
11:39AM 26.3056 -79.6981 213° Southwest 108 124 4,900 -600 Descending Miami Center
11:40AM 26.2803 -79.7092 202° Southwest 104 120 4,200 -840 Descending Miami Center
11:41AM 26.2528 -79.7269 210° Southwest 114 131 3,300 -780 Descending Miami Center
11:42AM 26.2294 -79.7425 211° Southwest 104 120 2,700 -480 Descending Miami Center
11:43AM 26.2042 -79.7606 213° Southwest 108 124 2,400 -300 Descending Miami Center
11:44AM 26.1786 -79.7853 221° Southwest 106 122 2,100 -180 Descending Miami Center
11:45AM 26.1553 -79.8011 211° Southwest 104 120 2,100  Level Miami Center
11:46AM 26.1297 -79.8167 209° Southwest 97 112 2,200 60 Climbing Miami Center
11:48AM 26.1064 -79.8367 218° Southwest 107 123 2,300  Climbing Miami Center
11:48AM 26.0894 -79.8547 224° Southwest 110 127 2,300  Level Miami Center
11:49AM 26.0681 -79.8797 226° Southwest 105 121 2,300  Level Miami Center
11:50AM 26.0425 -79.8978 212° Southwest 105 121 2,300 -60 Level Miami Center
11:52AM 26.0150 -79.9153 210° Southwest 107 123 2,200 -120 Descending Miami Center
11:52AM 25.9875 -79.9333 211° Southwest 108 124 2,100 -60 Descending Miami Center
11:53AM 25.9661 -79.9533 220° Southwest 106 122 2,100 -60 Level Miami Center
11:54AM 25.9489 -79.9831 237° Southwest 112 129 2,000 -60 Descending Miami Center
11:56AM 25.9397 -80.0150 252° West 112 129 2,000  Level Miami Center
11:57AM 25.9369 -80.0519 265° West 118 136 2,100  Climbing Miami Center
11:58AM 25.9339 -80.0889 265° West 124 143 2,000 -120 Descending Miami Center
11:59AM 25.9308 -80.1350 266° West 123 142 1,900 -120 Descending Miami Center
12:00PM 25.9303 -80.1628 269° West 124 143 1,800 -60 Descending Miami Center
12:01PM 25.9314 -80.1997 272° West 124 143 1,800 -120 Level Miami Center
12:02PM 25.9306 -80.2367 269° West 124 143 1,600 -240 Descending Miami Center
12:03PM 25.9297 -80.2758 269° West 124 143 1,400 -120 Descending Miami Center
12:04PM 25.9311 -80.3106 273° West 124 143 1,400  Level Miami Center
12:05PM 25.9322 -80.3475 272° West 124 143 1,400  Level Miami Center
12:06PM 25.9092 -80.3517 189° South 79 91 1,400 -300 Level Miami Center
12:07PM 25.9100 -80.3192 88° East 35 40 900 -600 Descending Miami Center
12:08PM 25.9083 -80.2961 95° East 62 71 200 1,260 Descending Miami Center
12:09PM 25.9025 -80.2775 109° East 62 71 3,500 3,300 Climbing Miami Center